sensor_id;sensor_type;location;lat;lon;timestamp;P1;durP1;ratioP1;P2;durP2;ratioP2
17796;SDS011;55596;53.554;9.916;2023-05-16T00:01:05;3.13;;;1.70;;
17796;SDS011;55596;53.554;9.916;2023-05-16T00:03:33;5.43;;;2.33;;
17796;SDS011;55596;53.554;9.916;2023-05-16T00:06:02;3.67;;;1.93;;
17796;SDS011;55596;53.554;9.916;2023-05-16T00:08:32;3.47;;;1.70;;
17796;SDS011;55596;53.554;9.916;2023-05-16T00:11:00;3.63;;;1.93;;
17796;SDS011;55596;53.554;9.916;2023-05-16T00:13:27;6.17;;;1.83;;
17796;SDS011;55596;53.554;9.916;2023-05-16T00:15:55;3.83;;;1.67;;
17796;SDS011;55596;53.554;9.916;2023-05-16T00:18:26;6.70;;;1.90;;
17796;SDS011;55596;53.554;9.916;2023-05-16T00:20:54;5.27;;;1.80;;
17796;SDS011;55596;53.554;9.916;2023-05-16T00:23:23;7.80;;;1.90;;
17796;SDS011;55596;53.554;9.916;2023-05-16T00:25:50;4.77;;;1.60;;
17796;SDS011;55596;53.554;9.916;2023-05-16T00:28:17;4.60;;;2.07;;
17796;SDS011;55596;53.554;9.916;2023-05-16T00:30:44;3.80;;;1.70;;
17796;SDS011;55596;53.554;9.916;2023-05-16T00:33:12;3.40;;;2.00;;
17796;SDS011;55596;53.554;9.916;2023-05-16T00:35:39;4.17;;;2.47;;
17796;SDS011;55596;53.554;9.916;2023-05-16T00:38:06;3.37;;;2.10;;
17796;SDS011;55596;53.554;9.916;2023-05-16T00:40:35;3.03;;;2.37;;
17796;SDS011;55596;53.554;9.916;2023-05-16T00:43:03;3.63;;;3.00;;
17796;SDS011;55596;53.554;9.916;2023-05-16T00:45:30;5.17;;;2.60;;
17796;SDS011;55596;53.554;9.916;2023-05-16T00:47:57;5.63;;;2.73;;
17796;SDS011;55596;53.554;9.916;2023-05-16T00:50:25;3.80;;;3.00;;
17796;SDS011;55596;53.554;9.916;2023-05-16T00:52:52;5.27;;;2.60;;
17796;SDS011;55596;53.554;9.916;2023-05-16T00:55:20;4.40;;;2.70;;
17796;SDS011;55596;53.554;9.916;2023-05-16T00:57:48;6.60;;;2.90;;
17796;SDS011;55596;53.554;9.916;2023-05-16T01:00:16;4.47;;;2.40;;
17796;SDS011;55596;53.554;9.916;2023-05-16T01:02:44;8.37;;;2.40;;
17796;SDS011;55596;53.554;9.916;2023-05-16T01:05:12;2.57;;;1.90;;
17796;SDS011;55596;53.554;9.916;2023-05-16T01:07:39;3.87;;;1.90;;
17796;SDS011;55596;53.554;9.916;2023-05-16T01:10:07;7.83;;;2.20;;
17796;SDS011;55596;53.554;9.916;2023-05-16T01:12:36;5.73;;;2.07;;
17796;SDS011;55596;53.554;9.916;2023-05-16T01:15:06;4.10;;;1.83;;
17796;SDS011;55596;53.554;9.916;2023-05-16T01:17:35;2.87;;;1.90;;
17796;SDS011;55596;53.554;9.916;2023-05-16T01:20:07;3.83;;;1.70;;
17796;SDS011;55596;53.554;9.916;2023-05-16T01:22:44;4.50;;;1.70;;
17796;SDS011;55596;53.554;9.916;2023-05-16T01:25:16;3.57;;;1.60;;
17796;SDS011;55596;53.554;9.916;2023-05-16T01:27:48;6.43;;;2.20;;
17796;SDS011;55596;53.554;9.916;2023-05-16T01:30:17;3.13;;;2.20;;
17796;SDS011;55596;53.554;9.916;2023-05-16T01:32:44;5.43;;;2.47;;
17796;SDS011;55596;53.554;9.916;2023-05-16T01:35:12;5.33;;;2.80;;
17796;SDS011;55596;53.554;9.916;2023-05-16T01:37:41;8.63;;;3.30;;
17796;SDS011;55596;53.554;9.916;2023-05-16T01:40:11;8.07;;;3.63;;
17796;SDS011;55596;53.554;9.916;2023-05-16T01:42:41;11.40;;;3.93;;
17796;SDS011;55596;53.554;9.916;2023-05-16T01:45:11;10.40;;;3.33;;
17796;SDS011;55596;53.554;9.916;2023-05-16T01:47:50;4.57;;;3.03;;
17796;SDS011;55596;53.554;9.916;2023-05-16T01:50:19;13.10;;;4.20;;
17796;SDS011;55596;53.554;9.916;2023-05-16T01:52:49;12.33;;;4.33;;
17796;SDS011;55596;53.554;9.916;2023-05-16T01:55:20;15.37;;;4.23;;
17796;SDS011;55596;53.554;9.916;2023-05-16T01:57:49;11.77;;;3.23;;
17796;SDS011;55596;53.554;9.916;2023-05-16T02:00:20;10.73;;;2.77;;
17796;SDS011;55596;53.554;9.916;2023-05-16T02:02:47;8.07;;;2.30;;
17796;SDS011;55596;53.554;9.916;2023-05-16T02:05:14;11.30;;;2.37;;
17796;SDS011;55596;53.554;9.916;2023-05-16T02:07:41;9.87;;;2.90;;
17796;SDS011;55596;53.554;9.916;2023-05-16T02:10:09;8.87;;;2.00;;
17796;SDS011;55596;53.554;9.916;2023-05-16T02:12:37;8.30;;;2.10;;
17796;SDS011;55596;53.554;9.916;2023-05-16T02:15:05;8.37;;;2.10;;
17796;SDS011;55596;53.554;9.916;2023-05-16T02:17:35;9.67;;;2.20;;
17796;SDS011;55596;53.554;9.916;2023-05-16T02:20:02;7.10;;;1.90;;
17796;SDS011;55596;53.554;9.916;2023-05-16T02:22:31;10.00;;;2.40;;
17796;SDS011;55596;53.554;9.916;2023-05-16T02:24:59;8.07;;;1.63;;
17796;SDS011;55596;53.554;9.916;2023-05-16T02:27:27;9.47;;;2.37;;
17796;SDS011;55596;53.554;9.916;2023-05-16T02:29:54;9.40;;;1.77;;
17796;SDS011;55596;53.554;9.916;2023-05-16T02:32:21;8.60;;;2.10;;
17796;SDS011;55596;53.554;9.916;2023-05-16T02:34:50;10.50;;;1.80;;
17796;SDS011;55596;53.554;9.916;2023-05-16T02:37:17;11.53;;;2.10;;
17796;SDS011;55596;53.554;9.916;2023-05-16T02:39:44;14.17;;;1.97;;
17796;SDS011;55596;53.554;9.916;2023-05-16T02:42:12;11.80;;;2.17;;
17796;SDS011;55596;53.554;9.916;2023-05-16T02:44:39;10.97;;;2.33;;
17796;SDS011;55596;53.554;9.916;2023-05-16T02:47:07;11.33;;;2.43;;
17796;SDS011;55596;53.554;9.916;2023-05-16T02:49:34;9.00;;;2.03;;
17796;SDS011;55596;53.554;9.916;2023-05-16T02:52:03;8.67;;;1.80;;
17796;SDS011;55596;53.554;9.916;2023-05-16T02:54:30;10.47;;;2.50;;
17796;SDS011;55596;53.554;9.916;2023-05-16T02:56:58;15.70;;;2.17;;
17796;SDS011;55596;53.554;9.916;2023-05-16T02:59:25;13.20;;;2.50;;
17796;SDS011;55596;53.554;9.916;2023-05-16T03:01:52;7.80;;;1.97;;
17796;SDS011;55596;53.554;9.916;2023-05-16T03:04:19;12.50;;;2.50;;
17796;SDS011;55596;53.554;9.916;2023-05-16T03:06:47;9.90;;;2.13;;
17796;SDS011;55596;53.554;9.916;2023-05-16T03:09:16;9.97;;;2.17;;
17796;SDS011;55596;53.554;9.916;2023-05-16T03:11:44;10.07;;;2.10;;
17796;SDS011;55596;53.554;9.916;2023-05-16T03:14:11;9.53;;;2.33;;
17796;SDS011;55596;53.554;9.916;2023-05-16T03:16:38;8.60;;;2.57;;
17796;SDS011;55596;53.554;9.916;2023-05-16T03:19:07;13.60;;;2.53;;
17796;SDS011;55596;53.554;9.916;2023-05-16T03:21:35;13.87;;;2.30;;
17796;SDS011;55596;53.554;9.916;2023-05-16T03:24:02;13.27;;;2.50;;
17796;SDS011;55596;53.554;9.916;2023-05-16T03:26:30;11.23;;;2.60;;
17796;SDS011;55596;53.554;9.916;2023-05-16T03:28:58;17.37;;;2.60;;
17796;SDS011;55596;53.554;9.916;2023-05-16T03:31:25;13.10;;;2.20;;
17796;SDS011;55596;53.554;9.916;2023-05-16T03:33:52;16.17;;;2.43;;
17796;SDS011;55596;53.554;9.916;2023-05-16T03:36:20;14.83;;;2.83;;
17796;SDS011;55596;53.554;9.916;2023-05-16T03:38:48;15.23;;;2.57;;
17796;SDS011;55596;53.554;9.916;2023-05-16T03:41:15;14.73;;;2.70;;
17796;SDS011;55596;53.554;9.916;2023-05-16T03:43:43;10.97;;;2.40;;
17796;SDS011;55596;53.554;9.916;2023-05-16T03:46:11;14.30;;;2.13;;
17796;SDS011;55596;53.554;9.916;2023-05-16T03:48:38;13.63;;;2.50;;
17796;SDS011;55596;53.554;9.916;2023-05-16T03:51:05;15.27;;;2.53;;
17796;SDS011;55596;53.554;9.916;2023-05-16T03:53:32;16.80;;;3.03;;
17796;SDS011;55596;53.554;9.916;2023-05-16T03:55:59;13.30;;;2.60;;
17796;SDS011;55596;53.554;9.916;2023-05-16T03:58:28;19.77;;;2.73;;
17796;SDS011;55596;53.554;9.916;2023-05-16T04:00:56;11.80;;;2.50;;
17796;SDS011;55596;53.554;9.916;2023-05-16T04:03:23;13.23;;;2.73;;
17796;SDS011;55596;53.554;9.916;2023-05-16T04:05:52;11.03;;;2.53;;
17796;SDS011;55596;53.554;9.916;2023-05-16T04:08:20;14.57;;;3.10;;
17796;SDS011;55596;53.554;9.916;2023-05-16T04:10:47;18.33;;;2.40;;
17796;SDS011;55596;53.554;9.916;2023-05-16T04:13:14;13.73;;;3.37;;
17796;SDS011;55596;53.554;9.916;2023-05-16T04:15:42;17.67;;;2.60;;
17796;SDS011;55596;53.554;9.916;2023-05-16T04:18:11;11.07;;;2.43;;
17796;SDS011;55596;53.554;9.916;2023-05-16T04:20:40;16.30;;;3.00;;
17796;SDS011;55596;53.554;9.916;2023-05-16T04:23:08;17.97;;;3.20;;
17796;SDS011;55596;53.554;9.916;2023-05-16T04:25:36;17.23;;;3.53;;
17796;SDS011;55596;53.554;9.916;2023-05-16T04:28:03;12.33;;;2.50;;
17796;SDS011;55596;53.554;9.916;2023-05-16T04:30:31;15.30;;;2.83;;
17796;SDS011;55596;53.554;9.916;2023-05-16T04:32:58;16.23;;;3.27;;
17796;SDS011;55596;53.554;9.916;2023-05-16T04:35:27;11.83;;;2.77;;
17796;SDS011;55596;53.554;9.916;2023-05-16T04:37:54;13.27;;;2.10;;
17796;SDS011;55596;53.554;9.916;2023-05-16T04:40:21;21.10;;;3.17;;
17796;SDS011;55596;53.554;9.916;2023-05-16T04:42:49;15.53;;;2.77;;
17796;SDS011;55596;53.554;9.916;2023-05-16T04:45:17;14.50;;;1.90;;
17796;SDS011;55596;53.554;9.916;2023-05-16T04:47:45;13.77;;;2.47;;
17796;SDS011;55596;53.554;9.916;2023-05-16T04:50:12;13.87;;;2.70;;
17796;SDS011;55596;53.554;9.916;2023-05-16T04:52:41;16.97;;;2.90;;
17796;SDS011;55596;53.554;9.916;2023-05-16T04:55:09;14.37;;;2.40;;
17796;SDS011;55596;53.554;9.916;2023-05-16T04:57:36;12.30;;;2.00;;
17796;SDS011;55596;53.554;9.916;2023-05-16T05:00:05;13.97;;;2.47;;
17796;SDS011;55596;53.554;9.916;2023-05-16T05:02:34;14.57;;;2.10;;
17796;SDS011;55596;53.554;9.916;2023-05-16T05:05:02;15.90;;;2.10;;
17796;SDS011;55596;53.554;9.916;2023-05-16T05:07:29;10.50;;;1.77;;
17796;SDS011;55596;53.554;9.916;2023-05-16T05:09:58;12.80;;;2.20;;
17796;SDS011;55596;53.554;9.916;2023-05-16T05:12:25;11.00;;;2.33;;
17796;SDS011;55596;53.554;9.916;2023-05-16T05:14:52;12.83;;;1.73;;
17796;SDS011;55596;53.554;9.916;2023-05-16T05:17:20;11.97;;;2.23;;
17796;SDS011;55596;53.554;9.916;2023-05-16T05:19:47;16.30;;;2.83;;
17796;SDS011;55596;53.554;9.916;2023-05-16T05:22:14;11.03;;;2.53;;
17796;SDS011;55596;53.554;9.916;2023-05-16T05:24:41;16.77;;;2.90;;
17796;SDS011;55596;53.554;9.916;2023-05-16T05:27:10;9.47;;;2.10;;
17796;SDS011;55596;53.554;9.916;2023-05-16T05:29:37;9.40;;;2.23;;
17796;SDS011;55596;53.554;9.916;2023-05-16T05:32:05;23.90;;;2.40;;
17796;SDS011;55596;53.554;9.916;2023-05-16T05:34:32;12.10;;;2.27;;
17796;SDS011;55596;53.554;9.916;2023-05-16T05:36:59;12.67;;;1.97;;
17796;SDS011;55596;53.554;9.916;2023-05-16T05:39:27;12.83;;;2.17;;
17796;SDS011;55596;53.554;9.916;2023-05-16T05:41:54;13.47;;;2.30;;
17796;SDS011;55596;53.554;9.916;2023-05-16T05:44:24;19.00;;;3.07;;
17796;SDS011;55596;53.554;9.916;2023-05-16T05:46:51;14.33;;;2.83;;
17796;SDS011;55596;53.554;9.916;2023-05-16T05:49:18;14.23;;;2.50;;
17796;SDS011;55596;53.554;9.916;2023-05-16T05:51:46;11.30;;;2.00;;
17796;SDS011;55596;53.554;9.916;2023-05-16T05:54:15;13.30;;;2.50;;
17796;SDS011;55596;53.554;9.916;2023-05-16T05:56:43;12.33;;;2.70;;
17796;SDS011;55596;53.554;9.916;2023-05-16T05:59:10;9.40;;;2.07;;
17796;SDS011;55596;53.554;9.916;2023-05-16T06:01:38;9.57;;;1.83;;
17796;SDS011;55596;53.554;9.916;2023-05-16T06:04:06;15.47;;;2.33;;
17796;SDS011;55596;53.554;9.916;2023-05-16T06:06:33;15.97;;;2.50;;
17796;SDS011;55596;53.554;9.916;2023-05-16T06:09:00;12.93;;;2.27;;
17796;SDS011;55596;53.554;9.916;2023-05-16T06:11:27;10.80;;;1.97;;
17796;SDS011;55596;53.554;9.916;2023-05-16T06:13:55;9.70;;;1.83;;
17796;SDS011;55596;53.554;9.916;2023-05-16T06:16:23;22.20;;;2.80;;
17796;SDS011;55596;53.554;9.916;2023-05-16T06:18:52;14.90;;;2.03;;
17796;SDS011;55596;53.554;9.916;2023-05-16T06:21:19;12.13;;;2.50;;
17796;SDS011;55596;53.554;9.916;2023-05-16T06:23:46;8.13;;;1.90;;
17796;SDS011;55596;53.554;9.916;2023-05-16T06:26:14;11.00;;;1.93;;
17796;SDS011;55596;53.554;9.916;2023-05-16T06:28:41;17.47;;;2.60;;
17796;SDS011;55596;53.554;9.916;2023-05-16T06:31:08;22.47;;;3.13;;
17796;SDS011;55596;53.554;9.916;2023-05-16T06:33:35;24.33;;;3.00;;
17796;SDS011;55596;53.554;9.916;2023-05-16T06:36:04;9.90;;;2.10;;
17796;SDS011;55596;53.554;9.916;2023-05-16T06:38:31;10.93;;;2.10;;
17796;SDS011;55596;53.554;9.916;2023-05-16T06:40:58;15.47;;;2.57;;
17796;SDS011;55596;53.554;9.916;2023-05-16T06:43:25;13.57;;;2.30;;
17796;SDS011;55596;53.554;9.916;2023-05-16T06:45:53;11.43;;;1.80;;
17796;SDS011;55596;53.554;9.916;2023-05-16T06:48:20;9.47;;;2.00;;
17796;SDS011;55596;53.554;9.916;2023-05-16T06:50:47;8.50;;;1.70;;
17796;SDS011;55596;53.554;9.916;2023-05-16T06:53:19;12.60;;;2.33;;
17796;SDS011;55596;53.554;9.916;2023-05-16T06:55:46;19.67;;;2.87;;
17796;SDS011;55596;53.554;9.916;2023-05-16T06:58:14;13.03;;;2.10;;
17796;SDS011;55596;53.554;9.916;2023-05-16T07:00:41;10.13;;;2.00;;
17796;SDS011;55596;53.554;9.916;2023-05-16T07:03:09;12.20;;;2.20;;
17796;SDS011;55596;53.554;9.916;2023-05-16T07:05:36;10.63;;;2.13;;
17796;SDS011;55596;53.554;9.916;2023-05-16T07:08:04;12.47;;;2.10;;
17796;SDS011;55596;53.554;9.916;2023-05-16T07:10:32;12.40;;;2.43;;
17796;SDS011;55596;53.554;9.916;2023-05-16T07:13:00;11.10;;;2.07;;
17796;SDS011;55596;53.554;9.916;2023-05-16T07:15:29;7.50;;;1.80;;
17796;SDS011;55596;53.554;9.916;2023-05-16T07:17:56;6.43;;;1.57;;
17796;SDS011;55596;53.554;9.916;2023-05-16T07:20:23;10.67;;;2.07;;
17796;SDS011;55596;53.554;9.916;2023-05-16T07:22:51;6.77;;;1.83;;
17796;SDS011;55596;53.554;9.916;2023-05-16T07:25:18;7.77;;;1.87;;
17796;SDS011;55596;53.554;9.916;2023-05-16T07:27:47;13.43;;;1.80;;
17796;SDS011;55596;53.554;9.916;2023-05-16T07:30:14;11.87;;;1.63;;
17796;SDS011;55596;53.554;9.916;2023-05-16T07:32:41;7.20;;;1.50;;
17796;SDS011;55596;53.554;9.916;2023-05-16T07:35:09;7.13;;;2.00;;
17796;SDS011;55596;53.554;9.916;2023-05-16T07:37:37;8.10;;;1.63;;
17796;SDS011;55596;53.554;9.916;2023-05-16T07:40:06;12.47;;;2.17;;
17796;SDS011;55596;53.554;9.916;2023-05-16T07:42:34;13.53;;;1.50;;
17796;SDS011;55596;53.554;9.916;2023-05-16T07:45:03;10.13;;;1.80;;
17796;SDS011;55596;53.554;9.916;2023-05-16T07:47:30;11.97;;;1.90;;
17796;SDS011;55596;53.554;9.916;2023-05-16T07:49:58;7.73;;;1.77;;
17796;SDS011;55596;53.554;9.916;2023-05-16T07:52:25;7.97;;;1.40;;
17796;SDS011;55596;53.554;9.916;2023-05-16T07:54:52;10.37;;;1.97;;
17796;SDS011;55596;53.554;9.916;2023-05-16T07:57:20;6.20;;;1.20;;
17796;SDS011;55596;53.554;9.916;2023-05-16T07:59:47;9.20;;;1.40;;
17796;SDS011;55596;53.554;9.916;2023-05-16T08:02:18;7.50;;;1.60;;
17796;SDS011;55596;53.554;9.916;2023-05-16T08:04:45;13.53;;;1.60;;
17796;SDS011;55596;53.554;9.916;2023-05-16T08:07:14;6.93;;;1.43;;
17796;SDS011;55596;53.554;9.916;2023-05-16T08:09:41;9.23;;;1.73;;
17796;SDS011;55596;53.554;9.916;2023-05-16T08:12:09;10.47;;;1.80;;
17796;SDS011;55596;53.554;9.916;2023-05-16T08:14:36;10.93;;;1.70;;
17796;SDS011;55596;53.554;9.916;2023-05-16T08:17:03;10.30;;;2.00;;
17796;SDS011;55596;53.554;9.916;2023-05-16T08:19:33;6.40;;;1.60;;
17796;SDS011;55596;53.554;9.916;2023-05-16T08:22:01;11.00;;;1.63;;
17796;SDS011;55596;53.554;9.916;2023-05-16T08:24:28;12.73;;;2.53;;
17796;SDS011;55596;53.554;9.916;2023-05-16T08:26:55;9.67;;;1.80;;
17796;SDS011;55596;53.554;9.916;2023-05-16T08:29:22;14.17;;;2.13;;
17796;SDS011;55596;53.554;9.916;2023-05-16T08:31:50;10.10;;;1.90;;
17796;SDS011;55596;53.554;9.916;2023-05-16T08:34:18;10.13;;;2.03;;
17796;SDS011;55596;53.554;9.916;2023-05-16T08:36:49;12.70;;;2.43;;
17796;SDS011;55596;53.554;9.916;2023-05-16T08:39:18;8.83;;;2.00;;
17796;SDS011;55596;53.554;9.916;2023-05-16T08:41:48;8.87;;;1.83;;
17796;SDS011;55596;53.554;9.916;2023-05-16T08:44:16;8.87;;;1.83;;
17796;SDS011;55596;53.554;9.916;2023-05-16T08:46:47;8.27;;;1.43;;
17796;SDS011;55596;53.554;9.916;2023-05-16T08:49:15;10.17;;;1.67;;
17796;SDS011;55596;53.554;9.916;2023-05-16T08:51:44;11.37;;;1.80;;
17796;SDS011;55596;53.554;9.916;2023-05-16T08:54:13;5.63;;;1.37;;
17796;SDS011;55596;53.554;9.916;2023-05-16T08:56:41;9.80;;;1.70;;
17796;SDS011;55596;53.554;9.916;2023-05-16T08:59:09;7.87;;;1.67;;
17796;SDS011;55596;53.554;9.916;2023-05-16T09:01:37;6.70;;;1.37;;
17796;SDS011;55596;53.554;9.916;2023-05-16T09:04:06;10.73;;;1.30;;
17796;SDS011;55596;53.554;9.916;2023-05-16T09:06:33;11.73;;;2.00;;
17796;SDS011;55596;53.554;9.916;2023-05-16T09:09:00;8.27;;;1.70;;
17796;SDS011;55596;53.554;9.916;2023-05-16T09:11:30;6.17;;;1.60;;
17796;SDS011;55596;53.554;9.916;2023-05-16T09:13:57;4.33;;;1.20;;
17796;SDS011;55596;53.554;9.916;2023-05-16T09:16:24;7.43;;;1.37;;
17796;SDS011;55596;53.554;9.916;2023-05-16T09:18:52;9.17;;;1.60;;
17796;SDS011;55596;53.554;9.916;2023-05-16T09:21:20;5.00;;;1.47;;
17796;SDS011;55596;53.554;9.916;2023-05-16T09:23:48;11.43;;;1.50;;
17796;SDS011;55596;53.554;9.916;2023-05-16T09:26:16;7.03;;;1.40;;
17796;SDS011;55596;53.554;9.916;2023-05-16T09:28:46;7.80;;;1.30;;
17796;SDS011;55596;53.554;9.916;2023-05-16T09:31:22;7.40;;;1.90;;
17796;SDS011;55596;53.554;9.916;2023-05-16T09:33:50;11.23;;;2.00;;
17796;SDS011;55596;53.554;9.916;2023-05-16T09:36:18;9.27;;;1.30;;
17796;SDS011;55596;53.554;9.916;2023-05-16T09:38:45;9.57;;;1.70;;
17796;SDS011;55596;53.554;9.916;2023-05-16T09:41:12;7.30;;;1.53;;
17796;SDS011;55596;53.554;9.916;2023-05-16T09:43:41;7.80;;;2.10;;
17796;SDS011;55596;53.554;9.916;2023-05-16T09:46:12;9.90;;;1.93;;
17796;SDS011;55596;53.554;9.916;2023-05-16T09:48:40;5.93;;;1.50;;
17796;SDS011;55596;53.554;9.916;2023-05-16T09:51:08;15.37;;;1.87;;
17796;SDS011;55596;53.554;9.916;2023-05-16T09:53:36;10.07;;;1.47;;
17796;SDS011;55596;53.554;9.916;2023-05-16T09:56:04;5.83;;;1.60;;
17796;SDS011;55596;53.554;9.916;2023-05-16T09:58:32;7.83;;;1.50;;
17796;SDS011;55596;53.554;9.916;2023-05-16T10:01:00;9.53;;;2.20;;
17796;SDS011;55596;53.554;9.916;2023-05-16T10:03:31;9.33;;;2.00;;
17796;SDS011;55596;53.554;9.916;2023-05-16T10:05:58;19.53;;;2.17;;
17796;SDS011;55596;53.554;9.916;2023-05-16T10:08:26;14.20;;;2.83;;
17796;SDS011;55596;53.554;9.916;2023-05-16T10:10:54;9.90;;;1.90;;
17796;SDS011;55596;53.554;9.916;2023-05-16T10:13:23;8.87;;;1.90;;
17796;SDS011;55596;53.554;9.916;2023-05-16T10:15:50;5.57;;;0.93;;
17796;SDS011;55596;53.554;9.916;2023-05-16T10:18:21;5.53;;;1.70;;
17796;SDS011;55596;53.554;9.916;2023-05-16T10:20:50;8.10;;;1.67;;
17796;SDS011;55596;53.554;9.916;2023-05-16T10:23:19;7.73;;;1.90;;
17796;SDS011;55596;53.554;9.916;2023-05-16T10:25:47;7.37;;;1.83;;
17796;SDS011;55596;53.554;9.916;2023-05-16T10:28:15;15.63;;;2.97;;
17796;SDS011;55596;53.554;9.916;2023-05-16T10:30:43;8.83;;;1.80;;
17796;SDS011;55596;53.554;9.916;2023-05-16T10:33:11;19.30;;;2.60;;
17796;SDS011;55596;53.554;9.916;2023-05-16T10:35:39;8.37;;;1.60;;
17796;SDS011;55596;53.554;9.916;2023-05-16T10:38:08;6.63;;;2.00;;
17796;SDS011;55596;53.554;9.916;2023-05-16T10:40:36;6.63;;;1.90;;
17796;SDS011;55596;53.554;9.916;2023-05-16T10:43:13;8.73;;;1.80;;
17796;SDS011;55596;53.554;9.916;2023-05-16T10:45:54;11.93;;;1.63;;
17796;SDS011;55596;53.554;9.916;2023-05-16T10:48:29;6.23;;;1.63;;
17796;SDS011;55596;53.554;9.916;2023-05-16T10:50:57;7.83;;;1.50;;
17796;SDS011;55596;53.554;9.916;2023-05-16T10:53:30;7.13;;;1.50;;
17796;SDS011;55596;53.554;9.916;2023-05-16T10:56:10;3.83;;;1.30;;
17796;SDS011;55596;53.554;9.916;2023-05-16T10:58:41;4.60;;;1.37;;
17796;SDS011;55596;53.554;9.916;2023-05-16T11:04:00;5.60;;;1.77;;
17796;SDS011;55596;53.554;9.916;2023-05-16T11:06:28;5.13;;;1.33;;
17796;SDS011;55596;53.554;9.916;2023-05-16T11:08:58;6.77;;;1.63;;
17796;SDS011;55596;53.554;9.916;2023-05-16T11:11:40;6.20;;;1.40;;
17796;SDS011;55596;53.554;9.916;2023-05-16T11:14:08;6.77;;;1.17;;
17796;SDS011;55596;53.554;9.916;2023-05-16T11:16:36;3.67;;;1.40;;
17796;SDS011;55596;53.554;9.916;2023-05-16T11:19:05;4.20;;;0.87;;
17796;SDS011;55596;53.554;9.916;2023-05-16T11:24:31;5.10;;;1.30;;
17796;SDS011;55596;53.554;9.916;2023-05-16T11:27:00;6.53;;;1.10;;
17796;SDS011;55596;53.554;9.916;2023-05-16T11:29:28;5.80;;;1.90;;
17796;SDS011;55596;53.554;9.916;2023-05-16T11:31:57;9.77;;;1.67;;
17796;SDS011;55596;53.554;9.916;2023-05-16T11:34:25;4.03;;;1.53;;
17796;SDS011;55596;53.554;9.916;2023-05-16T11:36:53;4.23;;;1.40;;
17796;SDS011;55596;53.554;9.916;2023-05-16T11:39:21;6.00;;;1.37;;
17796;SDS011;55596;53.554;9.916;2023-05-16T11:41:50;3.97;;;1.00;;
17796;SDS011;55596;53.554;9.916;2023-05-16T11:44:17;3.37;;;1.13;;
17796;SDS011;55596;53.554;9.916;2023-05-16T11:46:45;9.77;;;1.33;;
17796;SDS011;55596;53.554;9.916;2023-05-16T11:49:12;6.43;;;1.13;;
17796;SDS011;55596;53.554;9.916;2023-05-16T11:51:39;5.85;;;1.13;;
17796;SDS011;55596;53.554;9.916;2023-05-16T11:54:07;5.22;;;1.30;;
17796;SDS011;55596;53.554;9.916;2023-05-16T11:56:35;7.37;;;1.10;;
17796;SDS011;55596;53.554;9.916;2023-05-16T11:59:04;4.90;;;0.80;;
17796;SDS011;55596;53.554;9.916;2023-05-16T12:01:32;3.57;;;0.93;;
17796;SDS011;55596;53.554;9.916;2023-05-16T12:04:00;7.63;;;1.00;;
17796;SDS011;55596;53.554;9.916;2023-05-16T12:06:28;2.55;;;0.95;;
17796;SDS011;55596;53.554;9.916;2023-05-16T12:08:55;6.13;;;1.50;;
17796;SDS011;55596;53.554;9.916;2023-05-16T12:11:22;5.97;;;1.47;;
17796;SDS011;55596;53.554;9.916;2023-05-16T12:13:50;5.47;;;1.33;;
17796;SDS011;55596;53.554;9.916;2023-05-16T12:16:18;7.50;;;1.23;;
17796;SDS011;55596;53.554;9.916;2023-05-16T12:18:46;3.40;;;1.00;;
17796;SDS011;55596;53.554;9.916;2023-05-16T12:21:13;5.83;;;1.10;;
17796;SDS011;55596;53.554;9.916;2023-05-16T12:23:41;2.37;;;0.80;;
17796;SDS011;55596;53.554;9.916;2023-05-16T12:26:09;3.13;;;1.10;;
17796;SDS011;55596;53.554;9.916;2023-05-16T12:28:36;4.28;;;0.77;;
17796;SDS011;55596;53.554;9.916;2023-05-16T12:31:10;3.75;;;0.90;;
17796;SDS011;55596;53.554;9.916;2023-05-16T12:33:39;5.07;;;1.23;;
17796;SDS011;55596;53.554;9.916;2023-05-16T12:36:11;2.97;;;0.95;;
17796;SDS011;55596;53.554;9.916;2023-05-16T12:38:41;9.10;;;1.45;;
17796;SDS011;55596;53.554;9.916;2023-05-16T12:41:16;6.80;;;1.30;;
17796;SDS011;55596;53.554;9.916;2023-05-16T12:43:44;9.52;;;1.45;;
17796;SDS011;55596;53.554;9.916;2023-05-16T12:46:11;5.93;;;1.30;;
17796;SDS011;55596;53.554;9.916;2023-05-16T12:48:41;6.57;;;1.50;;
17796;SDS011;55596;53.554;9.916;2023-05-16T12:51:10;7.97;;;1.60;;
17796;SDS011;55596;53.554;9.916;2023-05-16T12:53:41;10.77;;;1.80;;
17796;SDS011;55596;53.554;9.916;2023-05-16T12:56:09;8.00;;;1.70;;
17796;SDS011;55596;53.554;9.916;2023-05-16T12:58:37;7.30;;;1.43;;
17796;SDS011;55596;53.554;9.916;2023-05-16T13:01:05;8.57;;;1.40;;
17796;SDS011;55596;53.554;9.916;2023-05-16T13:03:33;3.30;;;1.10;;
17796;SDS011;55596;53.554;9.916;2023-05-16T13:06:02;5.37;;;1.43;;
17796;SDS011;55596;53.554;9.916;2023-05-16T13:08:30;6.13;;;1.33;;
17796;SDS011;55596;53.554;9.916;2023-05-16T13:10:57;6.57;;;1.60;;
17796;SDS011;55596;53.554;9.916;2023-05-16T13:13:25;8.43;;;1.88;;
17796;SDS011;55596;53.554;9.916;2023-05-16T13:15:52;7.05;;;1.98;;
17796;SDS011;55596;53.554;9.916;2023-05-16T13:18:19;5.03;;;1.33;;
17796;SDS011;55596;53.554;9.916;2023-05-16T13:20:47;6.97;;;1.42;;
17796;SDS011;55596;53.554;9.916;2023-05-16T13:23:16;5.22;;;1.30;;
17796;SDS011;55596;53.554;9.916;2023-05-16T13:25:43;7.47;;;1.37;;
17796;SDS011;55596;53.554;9.916;2023-05-16T13:28:11;4.97;;;1.63;;
17796;SDS011;55596;53.554;9.916;2023-05-16T13:30:38;8.17;;;1.30;;
17796;SDS011;55596;53.554;9.916;2023-05-16T13:33:05;8.60;;;1.97;;
17796;SDS011;55596;53.554;9.916;2023-05-16T13:35:33;4.63;;;1.30;;
17796;SDS011;55596;53.554;9.916;2023-05-16T13:38:00;5.23;;;1.03;;
17796;SDS011;55596;53.554;9.916;2023-05-16T13:40:29;4.90;;;1.13;;
17796;SDS011;55596;53.554;9.916;2023-05-16T13:42:56;6.23;;;1.07;;
17796;SDS011;55596;53.554;9.916;2023-05-16T13:45:25;4.53;;;1.05;;
17796;SDS011;55596;53.554;9.916;2023-05-16T13:47:52;6.22;;;0.77;;
17796;SDS011;55596;53.554;9.916;2023-05-16T13:50:20;6.65;;;0.90;;
17796;SDS011;55596;53.554;9.916;2023-05-16T13:52:47;7.27;;;1.23;;
17796;SDS011;55596;53.554;9.916;2023-05-16T13:55:14;4.90;;;0.80;;
17796;SDS011;55596;53.554;9.916;2023-05-16T13:57:44;2.67;;;0.83;;
17796;SDS011;55596;53.554;9.916;2023-05-16T14:00:11;3.30;;;0.80;;
17796;SDS011;55596;53.554;9.916;2023-05-16T14:02:39;3.63;;;0.80;;
17796;SDS011;55596;53.554;9.916;2023-05-16T14:05:07;1.23;;;0.70;;
17796;SDS011;55596;53.554;9.916;2023-05-16T14:07:34;4.77;;;0.97;;
17796;SDS011;55596;53.554;9.916;2023-05-16T14:10:01;3.33;;;0.80;;
17796;SDS011;55596;53.554;9.916;2023-05-16T14:12:30;4.53;;;0.97;;
17796;SDS011;55596;53.554;9.916;2023-05-16T14:14:59;2.80;;;0.90;;
17796;SDS011;55596;53.554;9.916;2023-05-16T14:17:27;4.40;;;1.10;;
17796;SDS011;55596;53.554;9.916;2023-05-16T14:19:54;4.30;;;0.97;;
17796;SDS011;55596;53.554;9.916;2023-05-16T14:22:21;3.20;;;1.17;;
17796;SDS011;55596;53.554;9.916;2023-05-16T14:24:48;4.77;;;1.00;;
17796;SDS011;55596;53.554;9.916;2023-05-16T14:27:16;2.75;;;0.80;;
17796;SDS011;55596;53.554;9.916;2023-05-16T14:29:43;4.57;;;1.30;;
17796;SDS011;55596;53.554;9.916;2023-05-16T14:32:13;4.25;;;1.38;;
17796;SDS011;55596;53.554;9.916;2023-05-16T14:34:40;4.45;;;1.38;;
17796;SDS011;55596;53.554;9.916;2023-05-16T14:37:07;3.67;;;1.20;;
17796;SDS011;55596;53.554;9.916;2023-05-16T14:39:35;4.70;;;1.25;;
17796;SDS011;55596;53.554;9.916;2023-05-16T14:42:02;5.83;;;1.20;;
17796;SDS011;55596;53.554;9.916;2023-05-16T14:44:33;6.83;;;1.30;;
17796;SDS011;55596;53.554;9.916;2023-05-16T14:47:00;2.73;;;1.30;;
17796;SDS011;55596;53.554;9.916;2023-05-16T14:49:29;3.73;;;1.27;;
17796;SDS011;55596;53.554;9.916;2023-05-16T14:51:57;5.20;;;0.80;;
17796;SDS011;55596;53.554;9.916;2023-05-16T14:54:25;5.30;;;1.07;;